Time;durP1;ratioP1;P1;durP2;ratioP2;P2;SDS_P1;SDS_P2;PMS_P1;PMS_P2;Temp;Humidity;BMP_temperature;BMP_pressure;BME280_temperature;BME280_humidity;BME280_pressure;Samples;Min_cycle;Max_cycle;Signal;HPM_P1;HPM_P2
2022/01/10 00:02:00;;;;;;;;;;;;;;;8.77;76.33;100147.53;7362624;19;19938;-56
2022/01/10 00:04:25;;;;;;;;;;;;;;;8.79;75.86;100145.75;7359290;19;19925;-51
2022/01/10 00:06:50;;;;;;;;;;;;;;;8.79;76.29;100140.53;7355075;19;19922;-56
2022/01/10 00:09:15;;;;;;;;;;;;;;;8.80;76.29;100147.44;7359847;19;20360;-58
2022/01/10 00:11:41;;;;;;;;;;;;;;;8.81;76.26;100151.75;7360587;19;20270;-53
2022/01/10 00:14:06;;;;;;;;;;;;;;;8.81;76.01;100156.97;7353127;19;19986;-54
2022/01/10 00:16:31;;;;;;;;;;;;;;;8.82;76.21;100153.50;7354391;19;19922;-55
2022/01/10 00:18:56;;;;;;;;;;;;;;;8.83;76.33;100160.41;7357724;19;19930;-56
2022/01/10 00:21:22;;;;;;;;;;;;;;;8.84;76.03;100162.97;7360959;19;20963;-53
2022/01/10 00:23:47;;;;;;;;;;;;;;;8.84;76.07;100162.97;7356257;19;19926;-56
2022/01/10 00:26:13;;;;;;;;;;;;;;;8.86;76.13;100165.53;7360069;19;19986;-57
2022/01/10 00:28:38;;;;;;;;;;;;;;;8.87;76.43;100172.47;7358502;19;20272;-52
2022/01/10 00:31:03;;;;;;;;;;;;;;;8.87;76.25;100166.38;7356161;19;19971;-55
2022/01/10 00:33:29;;;;;;;;;;;;;;;8.89;76.47;100175.88;7359969;19;19934;-56
2022/01/10 00:35:54;;;;;;;;;;;;;;;8.91;76.60;100173.22;7361837;19;19919;-52
2022/01/10 00:38:19;;;;;;;;;;;;;;;8.91;76.17;100179.28;7364360;19;19911;-52
2022/01/10 00:40:48;;;;;;;;;;;;;;;8.94;76.17;100186.19;7366236;19;19956;-56
2022/01/10 00:43:18;;;;;;;;;;;;;;;8.95;76.25;100180.94;7365631;19;19917;-54
2022/01/10 00:45:43;;;;;;;;;;;;;;;8.94;76.43;100188.78;7364441;19;19925;-52
2022/01/10 00:48:09;;;;;;;;;;;;;;;8.95;76.13;100191.34;7365357;19;19978;-53
2022/01/10 00:50:34;;;;;;;;;;;;;;;8.94;76.31;100189.63;7364386;19;20630;-54
2022/01/10 00:53:01;;;;;;;;;;;;;;;8.94;76.34;100189.63;7367332;19;19914;-54
2022/01/10 00:55:27;;;;;;;;;;;;;;;8.96;76.46;100193.03;7366760;19;19942;-56
2022/01/10 00:57:52;;;;;;;;;;;;;;;8.95;76.19;100201.75;7367339;19;19975;-50
2022/01/10 01:00:18;;;;;;;;;;;;;;;8.96;76.19;100202.63;7370537;19;19919;-53
2022/01/10 01:02:43;;;;;;;;;;;;;;;8.95;76.24;100200.91;7367548;19;19929;-55
2022/01/10 01:05:11;;;;;;;;;;;;;;;8.95;76.04;100201.75;7367261;19;20332;-54
2022/01/10 01:07:37;;;;;;;;;;;;;;;8.95;76.33;100212.19;7369183;19;19924;-53
2022/01/10 01:12:52;;;;;;;;;;;;;;;8.97;76.38;100212.13;7369572;19;19921;-52
2022/01/10 01:15:20;;;;;;;;;;;;;;;8.99;76.25;100218.19;7367302;19;19939;-54
2022/01/10 01:25:49;;;;;;;;;;;;;;;9.02;76.45;100221.56;7363440;19;19921;-58
2022/01/10 01:28:14;;;;;;;;;;;;;;;9.04;76.38;100216.31;7369596;19;21683;-55
2022/01/10 01:30:41;;;;;;;;;;;;;;;9.04;76.37;100217.16;7367295;19;19918;-58
2022/01/10 01:33:06;;;;;;;;;;;;;;;9.06;76.73;100225.78;7368647;19;19923;-58
2022/01/10 01:35:34;;;;;;;;;;;;;;;9.07;76.29;100222.31;7367504;19;20450;-52
2022/01/10 01:38:00;;;;;;;;;;;;;;;9.09;76.41;100219.66;7369662;19;19931;-53
2022/01/10 01:40:28;;;;;;;;;;;;;;;9.09;76.39;100220.53;7364273;19;19935;-52
2022/01/10 01:42:54;;;;;;;;;;;;;;;9.12;76.69;100219.56;7362060;19;19922;-53
2022/01/10 01:45:34;;;;;;;;;;;;;;;9.13;76.56;100218.72;7363377;19;19926;-54
2022/01/10 01:47:59;;;;;;;;;;;;;;;9.16;76.46;100230.78;7366168;19;19939;-56
2022/01/10 01:50:25;;;;;;;;;;;;;;;9.18;76.42;100231.63;7366321;19;19922;-54
2022/01/10 01:52:50;;;;;;;;;;;;;;;9.19;76.59;100241.13;7367082;19;20348;-55
2022/01/10 01:55:15;;;;;;;;;;;;;;;9.21;76.63;100236.72;7365657;19;19939;-55
2022/01/10 01:57:41;;;;;;;;;;;;;;;9.23;76.59;100240.19;7366525;19;19918;-51
2022/01/10 02:00:07;;;;;;;;;;;;;;;9.24;76.45;100239.28;7369836;19;19919;-52
2022/01/10 02:02:33;;;;;;;;;;;;;;;9.26;76.65;100240.09;7369434;19;19994;-55
2022/01/10 02:04:58;;;;;;;;;;;;;;;9.28;76.58;100238.31;7361969;19;20529;-55
2022/01/10 02:07:23;;;;;;;;;;;;;;;9.28;76.40;100240.91;7369774;19;19975;-55
2022/01/10 02:09:49;;;;;;;;;;;;;;;9.30;76.73;100239.97;7359917;19;19915;-58
2022/01/10 02:12:14;;;;;;;;;;;;;;;9.32;76.86;100237.31;7367646;19;19927;-53
2022/01/10 02:14:41;;;;;;;;;;;;;;;9.32;76.67;100229.50;7363123;19;19923;-57
2022/01/10 02:17:07;;;;;;;;;;;;;;;9.32;76.54;100226.91;7367716;19;19932;-52
2022/01/10 02:19:32;;;;;;;;;;;;;;;9.33;76.74;100233.84;7362964;19;19932;-55
2022/01/10 02:21:57;;;;;;;;;;;;;;;9.34;76.66;100235.56;7365372;19;19957;-53
2022/01/10 02:24:23;;;;;;;;;;;;;;;9.34;76.50;100225.13;7369321;19;20736;-53
2022/01/10 02:26:49;;;;;;;;;;;;;;;9.35;76.48;100232.03;7365150;19;19927;-58
2022/01/10 02:29:14;;;;;;;;;;;;;;;9.35;76.35;100230.28;7368631;19;19949;-55
2022/01/10 02:31:40;;;;;;;;;;;;;;;9.35;76.42;100237.25;7365722;19;19937;-52
2022/01/10 02:34:06;;;;;;;;;;;;;;;9.35;76.79;100232.91;7365921;19;19927;-55
2022/01/10 02:36:31;;;;;;;;;;;;;;;9.36;76.63;100239.81;7363968;19;19922;-53
2022/01/10 02:38:58;;;;;;;;;;;;;;;9.36;76.63;100244.19;7367845;19;19922;-56
2022/01/10 02:41:32;;;;;;;;;;;;;;;9.37;76.70;100245.88;7360908;19;19918;-55
2022/01/10 02:43:58;;;;;;;;;;;;;;;9.38;76.62;100251.94;7367772;19;19915;-55
2022/01/10 02:46:24;;;;;;;;;;;;;;;9.38;76.48;100250.22;7368206;19;19926;-52
2022/01/10 02:48:49;;;;;;;;;;;;;;;9.38;76.56;100250.22;7364464;19;19918;-55
2022/01/10 02:51:15;;;;;;;;;;;;;;;9.39;76.55;100249.31;7364405;19;19924;-50
2022/01/10 02:53:40;;;;;;;;;;;;;;;9.40;76.73;100250.16;7365552;19;19921;-57
2022/01/10 02:56:06;;;;;;;;;;;;;;;9.38;76.84;100250.22;7366143;19;19911;-54
2022/01/10 02:58:31;;;;;;;;;;;;;;;9.38;76.91;100257.16;7354703;19;19920;-54
2022/01/10 03:00:57;;;;;;;;;;;;;;;9.38;76.62;100257.16;7366461;19;19931;-54
2022/01/10 03:03:22;;;;;;;;;;;;;;;9.37;76.67;100253.69;7359556;19;19910;-55
2022/01/10 03:05:47;;;;;;;;;;;;;;;9.38;76.83;100258.03;7361112;19;19918;-51
2022/01/10 03:08:12;;;;;;;;;;;;;;;9.39;76.57;100253.69;7362555;19;19929;-57
2022/01/10 03:10:38;;;;;;;;;;;;;;;9.39;76.96;100257.13;7364949;19;19922;-58
2022/01/10 03:13:03;;;;;;;;;;;;;;;9.40;76.88;100261.44;7358452;19;19929;-55
2022/01/10 03:15:28;;;;;;;;;;;;;;;9.40;76.49;100256.25;7359189;19;19925;-56
2022/01/10 03:17:54;;;;;;;;;;;;;;;9.42;76.69;100264.00;7366236;19;20006;-54
2022/01/10 03:20:20;;;;;;;;;;;;;;;9.42;76.63;100266.63;7354167;19;19938;-53
2022/01/10 03:22:45;;;;;;;;;;;;;;;9.43;76.55;100261.38;7360873;19;20030;-52
2022/01/10 03:25:11;;;;;;;;;;;;;;;9.43;77.07;100258.78;7365193;19;19915;-53
2022/01/10 03:27:36;;;;;;;;;;;;;;;9.44;76.80;100262.25;7356781;19;20514;-56
2022/01/10 03:30:02;;;;;;;;;;;;;;;9.44;77.08;100265.69;7365187;19;19914;-55
2022/01/10 03:32:27;;;;;;;;;;;;;;;9.45;76.99;100270.00;7352757;19;20430;-53
2022/01/10 03:34:53;;;;;;;;;;;;;;;9.46;76.78;100265.66;7354026;19;19922;-54
2022/01/10 03:37:18;;;;;;;;;;;;;;;9.47;76.65;100267.34;7357310;19;19931;-57
2022/01/10 03:39:43;;;;;;;;;;;;;;;9.48;76.71;100263.84;7350913;19;19907;-51
2022/01/10 03:42:09;;;;;;;;;;;;;;;9.48;76.84;100269.94;7361046;19;19919;-55
2022/01/10 03:44:34;;;;;;;;;;;;;;;9.49;76.82;100271.66;7366066;19;19918;-58
2022/01/10 03:47:01;;;;;;;;;;;;;;;9.50;77.01;100272.50;7365603;19;20559;-56
2022/01/10 03:49:26;;;;;;;;;;;;;;;9.50;76.75;100272.50;7364434;19;19918;-52
2022/01/10 03:51:52;;;;;;;;;;;;;;;9.52;76.73;100281.13;7364295;19;20614;-50
2022/01/10 03:54:17;;;;;;;;;;;;;;;9.52;76.60;100286.34;7352588;19;19911;-56
2022/01/10 03:56:43;;;;;;;;;;;;;;;9.52;77.09;100289.81;7365603;19;19986;-55
2022/01/10 03:59:08;;;;;;;;;;;;;;;9.54;77.07;100298.47;7364813;19;19915;-54
2022/01/10 04:01:37;;;;;;;;;;;;;;;9.55;76.99;100294.09;7354270;19;19923;-53
2022/01/10 04:04:03;;;;;;;;;;;;;;;9.56;77.06;100299.25;7360056;19;19919;-52
2022/01/10 04:06:28;;;;;;;;;;;;;;;9.58;76.78;100291.44;7354771;19;19910;-52
2022/01/10 04:08:53;;;;;;;;;;;;;;;9.58;77.11;100297.50;7366432;19;19918;-56
2022/01/10 04:11:19;;;;;;;;;;;;;;;9.61;76.80;100302.59;7359380;19;20512;-55
2022/01/10 04:13:44;;;;;;;;;;;;;;;9.60;77.30;100290.47;7365322;19;19914;-56
2022/01/10 04:16:09;;;;;;;;;;;;;;;9.62;77.28;100293.88;7368757;19;19927;-53
2022/01/10 04:18:35;;;;;;;;;;;;;;;9.35;77.07;100248.53;7368393;19;19959;-53
2022/01/10 04:21:00;;;;;;;;;;;;;;;9.67;77.17;100290.31;7364218;19;20043;-55
2022/01/10 04:23:25;;;;;;;;;;;;;;;9.69;76.86;100283.31;7364607;19;19990;-54
2022/01/10 04:25:51;;;;;;;;;;;;;;;9.70;77.20;100287.63;7361050;19;19914;-52
2022/01/10 04:28:16;;;;;;;;;;;;;;;9.71;76.99;100286.75;7369500;19;19914;-56
2022/01/10 04:30:42;;;;;;;;;;;;;;;9.73;77.17;100279.72;7367403;19;19923;-54
2022/01/10 04:33:07;;;;;;;;;;;;;;;9.74;76.98;100282.31;7364242;19;19954;-54
2022/01/10 04:35:33;;;;;;;;;;;;;;;9.76;76.89;100280.50;7370905;19;19914;-54
2022/01/10 04:37:58;;;;;;;;;;;;;;;9.78;76.95;100280.47;7366805;19;20293;-55
2022/01/10 04:40:25;;;;;;;;;;;;;;;9.80;77.31;100281.28;7368977;19;20583;-56
2022/01/10 04:42:50;;;;;;;;;;;;;;;9.83;76.80;100283.81;7368882;19;19942;-51
2022/01/10 04:45:16;;;;;;;;;;;;;;;9.84;77.31;100288.16;7364352;19;19914;-54
2022/01/10 04:47:41;;;;;;;;;;;;;;;9.87;77.14;100283.69;7368927;19;19927;-56
2022/01/10 04:52:32;;;;;;;;;;;;;;;9.91;77.27;100284.47;7371148;19;19919;-57
2022/01/10 04:54:59;;;;;;;;;;;;;;;9.94;76.92;100280.94;7363935;19;19940;-55
2022/01/10 04:57:24;;;;;;;;;;;;;;;9.96;77.32;100286.94;7370723;19;19933;-52
2022/01/10 04:59:49;;;;;;;;;;;;;;;9.97;76.89;100289.50;7367677;19;19914;-58
2022/01/10 05:02:14;;;;;;;;;;;;;;;9.99;76.93;100282.53;7363809;19;19936;-55
2022/01/10 05:04:40;;;;;;;;;;;;;;;10.01;77.20;100291.16;7368870;19;20012;-55
2022/01/10 05:07:05;;;;;;;;;;;;;;;10.02;77.10;100282.41;7369035;19;19934;-54
2022/01/10 05:09:31;;;;;;;;;;;;;;;10.03;77.35;100278.91;7361267;19;19918;-53
2022/01/10 05:11:56;;;;;;;;;;;;;;;10.05;77.19;100279.75;7369809;19;19923;-51
2022/01/10 05:14:22;;;;;;;;;;;;;;;10.05;77.07;100277.13;7368261;19;19999;-52
2022/01/10 05:16:47;;;;;;;;;;;;;;;10.06;77.07;100278.84;7366552;19;19935;-55
2022/01/10 05:19:13;;;;;;;;;;;;;;;10.07;77.11;100275.31;7365576;19;20444;-53
2022/01/10 05:21:38;;;;;;;;;;;;;;;10.09;77.07;100286.59;7367724;19;20638;-55
2022/01/10 05:24:04;;;;;;;;;;;;;;;10.11;77.25;100286.53;7367015;19;19944;-58
2022/01/10 05:26:29;;;;;;;;;;;;;;;10.12;77.16;100283.03;7371039;19;19923;-55
2022/01/10 05:28:59;;;;;;;;;;;;;;;10.14;77.22;100295.16;7363895;19;20443;-54
2022/01/10 05:31:25;;;;;;;;;;;;;;;10.17;77.32;100295.94;7369532;19;19945;-55
2022/01/10 05:33:50;;;;;;;;;;;;;;;10.19;77.42;100295.03;7366495;19;19919;-51
2022/01/10 05:36:15;;;;;;;;;;;;;;;10.22;77.27;100301.91;7362698;19;19911;-55
2022/01/10 05:38:41;;;;;;;;;;;;;;;10.25;77.40;100301.84;7366350;19;19926;-52
2022/01/10 05:41:06;;;;;;;;;;;;;;;10.27;77.32;100297.44;7367471;19;20275;-55
2022/01/10 05:43:31;;;;;;;;;;;;;;;10.30;77.54;100297.38;7367653;19;19925;-56
2022/01/10 05:45:57;;;;;;;;;;;;;;;10.32;77.32;100291.19;7364082;19;19941;-55
2022/01/10 05:48:26;;;;;;;;;;;;;;;10.35;77.04;100300.69;7367496;19;19922;-51
2022/01/10 05:50:55;;;;;;;;;;;;;;;10.37;77.52;100304.09;7369810;19;19947;-54
2022/01/10 05:53:20;;;;;;;;;;;;;;;10.41;77.34;100316.19;7366637;19;19983;-55
2022/01/10 05:55:46;;;;;;;;;;;;;;;10.43;77.60;100324.81;7369015;19;19922;-54
2022/01/10 05:58:15;;;;;;;;;;;;;;;10.45;77.16;100323.03;7367364;19;20292;-57
2022/01/10 06:00:40;;;;;;;;;;;;;;;10.49;77.60;100319.44;7368701;19;20281;-54
2022/01/10 06:03:06;;;;;;;;;;;;;;;10.51;77.13;100320.25;7365006;19;19932;-52
2022/01/10 06:05:31;;;;;;;;;;;;;;;10.53;77.32;100326.25;7365069;19;20042;-54
2022/01/10 06:08:00;;;;;;;;;;;;;;;10.57;77.12;100324.44;7360453;19;20357;-56
2022/01/10 06:10:26;;;;;;;;;;;;;;;10.59;77.45;100325.22;7369633;19;19947;-52
2022/01/10 06:12:51;;;;;;;;;;;;;;;10.61;77.26;100324.31;7364818;19;20545;-53
2022/01/10 06:15:17;;;;;;;;;;;;;;;10.64;77.14;100328.56;7366311;19;19910;-57
2022/01/10 06:17:42;;;;;;;;;;;;;;;10.64;77.06;100334.66;7367352;19;20345;-53
2022/01/10 06:20:08;;;;;;;;;;;;;;;10.65;77.53;100341.59;7363918;19;19923;-58
2022/01/10 06:22:33;;;;;;;;;;;;;;;10.68;77.51;100345.88;7368355;19;19918;-54
2022/01/10 06:24:59;;;;;;;;;;;;;;;10.71;77.07;100350.16;7363894;19;19923;-55
2022/01/10 06:27:24;;;;;;;;;;;;;;;10.72;77.25;100357.09;7340778;19;20036;-56
2022/01/10 06:29:50;;;;;;;;;;;;;;;10.74;77.08;100360.50;7362602;19;19930;-54
2022/01/10 06:32:15;;;;;;;;;;;;;;;10.74;77.21;100361.34;7365642;19;19919;-56
2022/01/10 06:34:40;;;;;;;;;;;;;;;10.77;77.42;100366.50;7366234;19;19914;-54
2022/01/10 06:37:05;;;;;;;;;;;;;;;10.80;77.20;100373.41;7364862;19;19918;-57
2022/01/10 06:39:31;;;;;;;;;;;;;;;10.82;77.53;100374.19;7365664;19;19927;-57
2022/01/10 06:41:56;;;;;;;;;;;;;;;10.84;77.16;100373.25;7365093;19;19951;-53
2022/01/10 06:44:21;;;;;;;;;;;;;;;10.87;77.29;100372.31;7364147;19;19939;-58
2022/01/10 06:46:47;;;;;;;;;;;;;;;10.88;77.31;100377.47;7365852;19;19926;-52
2022/01/10 06:49:12;;;;;;;;;;;;;;;10.90;77.34;100374.84;7365676;19;19911;-51
2022/01/10 06:51:37;;;;;;;;;;;;;;;10.92;77.36;100375.66;7362545;19;19926;-49
2022/01/10 06:54:03;;;;;;;;;;;;;;;10.94;77.29;100378.19;7366811;19;19923;-54
2022/01/10 06:56:28;;;;;;;;;;;;;;;10.96;77.15;100381.66;7365157;19;19936;-55
2022/01/10 06:58:53;;;;;;;;;;;;;;;10.97;77.63;100385.97;7365627;19;19936;-49
2022/01/10 07:01:20;;;;;;;;;;;;;;;10.99;77.56;100390.22;7367148;19;19923;-51
2022/01/10 07:03:45;;;;;;;;;;;;;;;11.00;77.19;100384.13;7361238;19;19911;-55
2022/01/10 07:06:11;;;;;;;;;;;;;;;11.02;77.47;100384.91;7367254;19;19919;-52
2022/01/10 07:08:36;;;;;;;;;;;;;;;11.03;77.53;100397.09;7361679;19;19936;-55
2022/01/10 07:11:01;;;;;;;;;;;;;;;11.05;77.55;100403.13;7367085;19;20385;-50
2022/01/10 07:13:27;;;;;;;;;;;;;;;11.07;77.25;100406.53;7357543;19;19919;-54
2022/01/10 07:15:52;;;;;;;;;;;;;;;11.08;77.18;100416.09;7361873;19;19975;-53
2022/01/10 07:18:18;;;;;;;;;;;;;;;11.09;77.67;100415.19;7362250;19;19930;-56
2022/01/10 07:20:43;;;;;;;;;;;;;;;11.12;77.65;100425.56;7363449;19;19931;-54
2022/01/10 07:23:09;;;;;;;;;;;;;;;11.15;77.41;100430.72;7363114;19;19962;-55
2022/01/10 07:25:35;;;;;;;;;;;;;;;11.18;77.43;100432.38;7365326;19;19998;-56
2022/01/10 07:28:00;;;;;;;;;;;;;;;11.21;77.55;100444.50;7355103;19;19922;-52
2022/01/10 07:30:25;;;;;;;;;;;;;;;11.24;77.65;100444.38;7358408;19;19927;-52
2022/01/10 07:32:51;;;;;;;;;;;;;;;11.26;77.31;100451.31;7362429;19;19931;-56
2022/01/10 07:35:16;;;;;;;;;;;;;;;11.28;77.56;100444.25;7360798;19;19915;-54
2022/01/10 07:37:42;;;;;;;;;;;;;;;11.32;77.34;100452.88;7363141;19;19967;-53
2022/01/10 07:40:07;;;;;;;;;;;;;;;11.35;77.40;100455.38;7357611;19;19998;-56
2022/01/10 07:42:33;;;;;;;;;;;;;;;11.38;77.72;100447.47;7366267;19;19924;-56
2022/01/10 07:44:58;;;;;;;;;;;;;;;11.42;77.27;100454.31;7364648;19;19934;-52
2022/01/10 07:47:23;;;;;;;;;;;;;;;11.47;77.25;100456.78;7367416;19;19926;-56
2022/01/10 07:49:49;;;;;;;;;;;;;;;11.51;77.70;100459.28;7369267;19;19922;-49
2022/01/10 07:52:14;;;;;;;;;;;;;;;11.55;77.69;100460.88;7371261;19;19918;-54
2022/01/10 07:54:39;;;;;;;;;;;;;;;11.59;77.41;100445.94;7369090;19;19910;-58
2022/01/10 07:57:05;;;;;;;;;;;;;;;11.64;77.34;100454.50;7362995;19;20323;-51
2022/01/10 07:59:30;;;;;;;;;;;;;;;11.65;77.44;100454.44;7369155;19;19929;-55
2022/01/10 08:01:56;;;;;;;;;;;;;;;11.68;77.08;100450.88;7358489;19;19951;-57
2022/01/10 08:04:21;;;;;;;;;;;;;;;11.67;77.42;100455.28;7357251;19;19943;-57
2022/01/10 08:06:46;;;;;;;;;;;;;;;11.69;76.83;100466.53;7365200;19;20273;-54
2022/01/10 08:09:11;;;;;;;;;;;;;;;11.69;76.96;100466.53;7357666;19;19914;-55
2022/01/10 08:11:37;;;;;;;;;;;;;;;11.70;77.43;100470.84;7356063;19;20378;-56
2022/01/10 08:14:03;;;;;;;;;;;;;;;11.73;77.51;100474.28;7365774;19;19926;-53
2022/01/10 08:16:28;;;;;;;;;;;;;;;11.75;77.62;100477.72;7358218;19;19915;-54
2022/01/10 08:18:54;;;;;;;;;;;;;;;11.77;77.10;100486.38;7351660;19;19942;-54
2022/01/10 08:21:19;;;;;;;;;;;;;;;11.80;77.16;100501.97;7362567;19;20668;-56
2022/01/10 08:23:44;;;;;;;;;;;;;;;11.80;77.22;100489.72;7363771;19;19934;-54
2022/01/10 08:26:10;;;;;;;;;;;;;;;11.82;77.57;100494.97;7371196;19;19987;-52
2022/01/10 08:28:35;;;;;;;;;;;;;;;11.84;77.70;100498.38;7366506;19;20425;-57
2022/01/10 08:31:01;;;;;;;;;;;;;;;11.85;77.07;100505.31;7362334;19;19950;-56
2022/01/10 08:33:26;;;;;;;;;;;;;;;11.85;77.22;100502.72;7363448;19;19922;-55
2022/01/10 08:35:51;;;;;;;;;;;;;;;11.83;77.36;100512.38;7363124;19;19915;-57
2022/01/10 08:38:17;;;;;;;;;;;;;;;11.83;77.24;100517.63;7368550;19;19929;-58
2022/01/10 08:40:42;;;;;;;;;;;;;;;11.81;77.12;100516.75;7366995;19;20351;-58
2022/01/10 08:43:10;;;;;;;;;;;;;;;11.81;77.13;100520.25;7365756;19;19934;-58
2022/01/10 08:45:35;;;;;;;;;;;;;;;11.83;77.45;100518.47;7362048;19;19927;-58
2022/01/10 08:48:01;;;;;;;;;;;;;;;11.84;77.48;100520.16;7348053;19;19961;-57
2022/01/10 08:50:27;;;;;;;;;;;;;;;11.85;77.28;100523.63;7365893;19;19951;-56
2022/01/10 08:52:52;;;;;;;;;;;;;;;11.85;77.18;100521.88;7365620;19;19926;-55
2022/01/10 08:55:18;;;;;;;;;;;;;;;11.86;77.21;100528.84;7360801;19;20070;-58
2022/01/10 08:57:43;;;;;;;;;;;;;;;11.86;77.44;100538.44;7362521;19;20706;-55
2022/01/10 09:00:09;;;;;;;;;;;;;;;11.85;77.29;100548.03;7362034;19;19922;-55
2022/01/10 09:02:35;;;;;;;;;;;;;;;11.86;77.46;100543.66;7365674;19;19941;-57
2022/01/10 09:05:00;;;;;;;;;;;;;;;11.87;77.81;100537.56;7356616;19;19931;-53
2022/01/10 09:07:26;;;;;;;;;;;;;;;11.88;77.83;100552.34;7354601;19;19929;-55
2022/01/10 09:09:51;;;;;;;;;;;;;;;11.90;77.42;100550.53;7356688;19;19927;-56
2022/01/10 09:12:17;;;;;;;;;;;;;;;11.90;77.53;100558.38;7363501;19;19929;-56
2022/01/10 09:14:42;;;;;;;;;;;;;;;11.92;77.89;100560.06;7364145;19;19955;-57
2022/01/10 09:17:07;;;;;;;;;;;;;;;11.95;77.66;100574.78;7365850;19;19926;-56
2022/01/10 09:19:33;;;;;;;;;;;;;;;11.96;77.71;100571.25;7362812;19;19934;-53
2022/01/10 09:21:58;;;;;;;;;;;;;;;11.97;77.84;100573.00;7364397;19;19919;-54
2022/01/10 09:24:23;;;;;;;;;;;;;;;12.01;77.60;100578.97;7367502;19;20379;-57
2022/01/10 09:26:49;;;;;;;;;;;;;;;12.03;77.69;100582.44;7370940;19;19927;-52
2022/01/10 09:29:14;;;;;;;;;;;;;;;12.06;77.55;100585.78;7362606;19;20274;-55
2022/01/10 09:31:39;;;;;;;;;;;;;;;12.07;77.85;100579.66;7368284;19;19911;-57
2022/01/10 09:34:05;;;;;;;;;;;;;;;12.10;77.70;100581.31;7365578;19;19939;-55
2022/01/10 09:36:31;;;;;;;;;;;;;;;12.12;78.04;100577.75;7358736;19;19946;-56
2022/01/10 09:38:57;;;;;;;;;;;;;;;12.14;77.59;100581.19;7355143;19;19918;-55
2022/01/10 09:41:23;;;;;;;;;;;;;;;12.17;77.90;100586.34;7357464;19;19983;-54
2022/01/10 09:44:02;;;;;;;;;;;;;;;12.20;77.93;100586.22;7341016;19;19926;-55
2022/01/10 12:26:50;;;;;;;;;;;;;;;15.16;76.34;100668.16;7393100;19;21358;-54
2022/01/10 12:29:16;;;;;;;;;;;;;;;15.19;76.46;100668.00;7365075;19;19943;-57
2022/01/10 12:31:43;;;;;;;;;;;;;;;15.25;76.15;100673.00;7370598;19;19926;-54
2022/01/10 12:34:09;;;;;;;;;;;;;;;15.30;75.98;100675.44;7364557;19;19923;-55
2022/01/10 12:36:35;;;;;;;;;;;;;;;15.35;75.78;100677.88;7368393;19;19983;-58
2022/01/10 12:39:24;;;;;;;;;;;;;;;15.36;75.43;100680.47;7370124;19;19954;-59
2022/01/10 12:41:50;;;;;;;;;;;;;;;15.34;75.63;100681.44;7367775;19;19925;-58
2022/01/10 12:44:16;;;;;;;;;;;;;;;15.30;75.54;100675.44;7361314;19;20356;-55
2022/01/10 12:46:41;;;;;;;;;;;;;;;15.28;75.50;100680.78;7371469;19;19923;-57
2022/01/10 12:49:10;;;;;;;;;;;;;;;15.26;75.74;100682.63;7367264;19;19949;-56
2022/01/10 12:51:37;;;;;;;;;;;;;;;15.24;75.21;100680.97;7370247;19;19923;-57
2022/01/10 12:54:04;;;;;;;;;;;;;;;15.20;75.25;100682.88;7370037;19;19938;-57
2022/01/10 12:56:30;;;;;;;;;;;;;;;15.16;75.35;100689.19;7364386;19;20019;-56
2022/01/10 12:58:55;;;;;;;;;;;;;;;15.14;75.61;100691.03;7365641;19;19941;-57
2022/01/10 13:01:21;;;;;;;;;;;;;;;15.11;75.69;100706.94;7367078;19;19926;-57
2022/01/10 13:03:49;;;;;;;;;;;;;;;15.07;75.49;100689.56;7364049;19;19951;-57
2022/01/10 13:06:14;;;;;;;;;;;;;;;15.03;75.27;100688.00;7362311;19;19940;-57
2022/01/10 13:08:41;;;;;;;;;;;;;;;15.00;75.29;100698.63;7364910;19;19926;-57
2022/01/10 13:11:13;;;;;;;;;;;;;;;14.97;75.56;100704.03;7365588;19;19951;-57
2022/01/10 13:13:39;;;;;;;;;;;;;;;14.92;75.49;100700.72;7365558;19;19923;-57
2022/01/10 13:16:21;;;;;;;;;;;;;;;14.88;75.62;100700.00;7362473;19;19974;-57
2022/01/10 13:19:16;;;;;;;;;;;;;;;14.85;75.77;100709.75;7365974;19;19918;-55
2022/01/10 13:21:52;;;;;;;;;;;;;;;14.84;75.59;100708.06;7264310;19;2004193;-56
2022/01/10 13:24:24;;;;;;;;;;;;;;;14.83;75.74;100711.59;7366537;19;19911;-55
2022/01/10 13:26:58;;;;;;;;;;;;;;;14.79;75.86;100706.47;7367469;19;19923;-58
2022/01/10 13:29:34;;;;;;;;;;;;;;;14.78;75.64;100710.00;7363770;19;20722;-55
2022/01/10 13:32:12;;;;;;;;;;;;;;;14.75;75.24;100715.41;7365079;19;19915;-57
2022/01/10 13:34:37;;;;;;;;;;;;;;;14.74;75.63;100715.44;7363028;19;19923;-57
2022/01/10 13:37:02;;;;;;;;;;;;;;;14.70;75.30;100711.22;7367075;19;20263;-52
2022/01/10 13:39:29;;;;;;;;;;;;;;;14.68;75.65;100702.56;7357813;19;19923;-57
2022/01/10 13:42:06;;;;;;;;;;;;;;;14.66;75.52;100699.16;7370841;19;20331;-57
2022/01/10 13:44:33;;;;;;;;;;;;;;;14.64;75.28;100712.31;7361464;19;19922;-55
2022/01/10 13:47:01;;;;;;;;;;;;;;;14.63;75.60;100710.63;7366411;19;19943;-55
2022/01/10 13:49:27;;;;;;;;;;;;;;;14.62;75.77;100706.28;7367250;19;19918;-55
2022/01/10 13:52:07;;;;;;;;;;;;;;;14.60;75.67;100707.25;7366327;19;19939;-57
2022/01/10 13:54:32;;;;;;;;;;;;;;;14.59;75.23;100709.03;7364475;19;19915;-55
2022/01/10 13:57:12;;;;;;;;;;;;;;;14.56;75.19;100722.31;7365991;19;19938;-55
2022/01/10 13:59:37;;;;;;;;;;;;;;;14.55;75.73;100728.47;7364230;19;20363;-56
2022/01/10 14:02:03;;;;;;;;;;;;;;;14.53;75.35;100725.88;7369075;19;20470;-58
2022/01/10 14:04:32;;;;;;;;;;;;;;;14.52;75.31;100724.19;7367002;19;19934;-57
2022/01/10 14:06:58;;;;;;;;;;;;;;;14.51;75.66;100722.47;7361431;19;19930;-57
2022/01/10 14:09:26;;;;;;;;;;;;;;;14.50;75.70;100731.28;7363868;19;19970;-56
2022/01/10 14:11:53;;;;;;;;;;;;;;;14.51;75.48;100737.38;7359687;19;19956;-58
2022/01/10 14:14:19;;;;;;;;;;;;;;;14.49;75.53;100739.19;7365228;19;19914;-56
2022/01/10 14:16:49;;;;;;;;;;;;;;;14.50;75.77;100751.44;7360150;19;20499;-56
2022/01/10 14:19:15;;;;;;;;;;;;;;;14.50;75.50;100748.81;7362905;19;19926;-55
2022/01/10 14:21:40;;;;;;;;;;;;;;;14.49;75.80;100752.34;7360802;19;19919;-57
2022/01/10 14:24:06;;;;;;;;;;;;;;;14.49;75.70;100752.34;7362290;19;19919;-56
2022/01/10 14:26:31;;;;;;;;;;;;;;;14.49;75.23;100754.97;7365244;19;19914;-56
2022/01/10 14:28:58;;;;;;;;;;;;;;;14.50;75.27;100762.81;7361289;19;20611;-58
2022/01/10 14:31:24;;;;;;;;;;;;;;;14.49;75.32;100760.22;7360972;19;19990;-55
2022/01/10 14:33:50;;;;;;;;;;;;;;;14.49;75.33;100760.22;7363833;19;20438;-58
2022/01/10 14:36:16;;;;;;;;;;;;;;;14.48;75.46;100764.63;7362284;19;19978;-58
2022/01/10 14:38:42;;;;;;;;;;;;;;;14.47;75.41;100762.91;7366071;19;19930;-57
2022/01/10 14:41:08;;;;;;;;;;;;;;;14.45;75.19;100764.72;7362920;19;20597;-57
2022/01/10 14:43:33;;;;;;;;;;;;;;;14.45;75.33;100766.50;7364635;19;19918;-58
2022/01/10 14:45:59;;;;;;;;;;;;;;;14.43;75.02;100758.66;7365847;19;20252;-55
2022/01/10 14:48:29;;;;;;;;;;;;;;;14.41;74.95;100751.75;7365193;19;19936;-56
2022/01/10 14:50:54;;;;;;;;;;;;;;;14.42;75.25;100774.47;7361569;19;20454;-54
2022/01/10 14:53:21;;;;;;;;;;;;;;;14.41;75.10;100767.53;7364610;19;19922;-56
2022/01/10 14:55:48;;;;;;;;;;;;;;;14.37;75.18;100764.16;7360139;19;19942;-54
2022/01/10 14:58:14;;;;;;;;;;;;;;;14.37;75.00;100777.28;7364218;19;19935;-56
2022/01/10 15:00:48;;;;;;;;;;;;;;;14.36;74.99;100770.31;7362479;19;19927;-56
2022/01/10 15:03:18;;;;;;;;;;;;;;;14.37;75.41;100774.66;7360068;19;19922;-55
2022/01/10 15:05:44;;;;;;;;;;;;;;;14.37;75.21;100776.44;7365777;19;20560;-55
2022/01/10 15:08:11;;;;;;;;;;;;;;;14.37;75.04;100776.44;7361795;19;19918;-58
2022/01/10 15:10:36;;;;;;;;;;;;;;;14.38;75.22;100767.63;7362254;19;19918;-55
2022/01/10 15:13:02;;;;;;;;;;;;;;;14.39;75.32;100775.44;7365369;19;19942;-58
2022/01/10 15:15:27;;;;;;;;;;;;;;;14.39;75.01;100775.44;7359516;19;19927;-58
2022/01/10 15:17:53;;;;;;;;;;;;;;;14.38;75.30;100775.50;7365019;19;20766;-57
2022/01/10 15:20:18;;;;;;;;;;;;;;;14.38;75.06;100770.25;7359605;19;19922;-56
2022/01/10 15:22:43;;;;;;;;;;;;;;;14.40;74.87;100776.31;7362295;19;19954;-59
2022/01/10 15:25:09;;;;;;;;;;;;;;;14.39;75.25;100790.34;7363656;19;19929;-56
2022/01/10 15:27:34;;;;;;;;;;;;;;;14.32;75.29;100775.75;7360001;19;19918;-56
2022/01/10 15:30:00;;;;;;;;;;;;;;;14.39;74.70;100782.47;7355749;19;19929;-52